Terminal Aerodrome Forecast
Issued by NWS

Home | Current Version | Previous Version | Text Only | Print | Product List | Glossary On
Versions: 1 2 3 4 5 6 7 8 9 10 11 12 13 14 15
586
FTPA31 PHFO 230521
TAFHJR
TAF
PHJR 230521Z 2306/2406 06006KT P6SM FEW045 SCT060
     FM232000 09009G14KT P6SM VCSH FEW045 SCT060=

USA.gov is the U.S. government's official web portal to all federal, state and local government web resources and services.